createdAt,value
2019-01-24T00:00:39.022Z,80.81
2019-01-24T00:01:39.124Z,80.71
2019-01-24T00:03:40.365Z,79.66
2019-01-24T00:04:37.701Z,80.39
2019-01-24T00:05:37.710Z,80.08
2019-01-24T00:06:37.757Z,80.39
2019-01-24T00:07:38.763Z,80.39
2019-01-24T00:08:38.344Z,79.86
2019-01-24T00:09:38.344Z,80.29
2019-01-24T00:10:39.022Z,80.08
2019-01-24T00:11:38.564Z,80.18
2019-01-24T00:12:39.072Z,80.81
2019-01-24T00:13:37.587Z,80.08
2019-01-24T00:14:38.351Z,80.53
2019-01-24T00:15:38.684Z,79.44
2019-01-24T00:16:38.633Z,79.97
2019-01-24T00:17:38.344Z,80.53
2019-01-24T00:18:37.615Z,80.39
2019-01-24T00:20:38.633Z,80.64
2019-01-24T00:21:39.409Z,79.06
2019-01-24T00:22:37.527Z,79.06
2019-01-24T00:23:38.009Z,79.48
2019-01-24T00:24:37.684Z,80.00
2019-01-24T00:25:37.820Z,79.69
2019-01-24T00:26:37.477Z,79.48
2019-01-24T00:27:37.495Z,80.00
2019-01-24T00:28:38.865Z,80.32
2019-01-24T00:29:37.553Z,80.43
2019-01-24T00:30:37.698Z,80.11
2019-01-24T00:32:38.409Z,80.74
2019-01-24T00:33:38.411Z,80.22
2019-01-24T00:34:37.378Z,80.53
2019-01-24T00:35:38.885Z,80.53
2019-01-24T00:36:38.873Z,80.43
2019-01-24T00:37:37.948Z,80.78
2019-01-24T00:38:38.652Z,80.43
2019-01-24T00:39:38.259Z,79.80
2019-01-24T00:40:37.352Z,80.74
2019-01-24T00:42:38.295Z,80.53
2019-01-24T00:43:40.207Z,80.53
2019-01-24T00:44:40.477Z,80.53
2019-01-24T00:45:39.355Z,79.80
2019-01-24T00:46:37.656Z,80.43
2019-01-24T00:47:37.235Z,80.11
2019-01-24T00:48:37.255Z,80.74
2019-01-24T00:49:37.951Z,80.11
2019-01-24T00:50:37.995Z,80.32
2019-01-24T00:51:38.888Z,80.43
2019-01-24T00:52:37.798Z,80.53
2019-01-24T00:53:38.165Z,80.22
2019-01-24T00:54:37.446Z,80.15
2019-01-24T00:55:37.229Z,80.53
2019-01-24T00:56:37.260Z,80.74
2019-01-24T00:57:37.881Z,80.64
2019-01-24T00:58:37.231Z,79.80
2019-01-24T00:59:37.169Z,80.11
2019-01-24T01:00:37.432Z,80.85
2019-01-24T01:01:38.232Z,80.53
2019-01-24T01:02:37.172Z,80.43
2019-01-24T01:03:37.850Z,80.32
2019-01-24T01:04:38.098Z,80.22
2019-01-24T01:05:38.289Z,79.48
2019-01-24T01:06:37.749Z,79.27
2019-01-24T01:07:37.931Z,78.33
2019-01-24T01:08:38.180Z,79.06
2019-01-24T01:09:37.862Z,78.75
2019-01-24T01:10:38.895Z,78.96
2019-01-24T01:11:37.561Z,79.27
2019-01-24T01:12:37.990Z,78.85
2019-01-24T01:13:38.342Z,78.53
2019-01-24T01:14:37.094Z,79.21
2019-01-24T01:15:38.184Z,78.75
2019-01-24T01:16:37.909Z,78.78
2019-01-24T01:17:36.942Z,79.48
2019-01-24T01:18:37.217Z,79.52
2019-01-24T01:19:37.858Z,80.00
2019-01-24T01:20:36.922Z,79.17
2019-01-24T01:21:36.942Z,78.85
2019-01-24T01:22:37.134Z,78.67
2019-01-24T01:23:37.214Z,78.85
2019-01-24T01:24:36.854Z,78.89
2019-01-24T01:25:37.860Z,79.31
2019-01-24T01:26:37.056Z,79.73
2019-01-24T01:27:37.542Z,80.46
2019-01-24T01:28:37.388Z,79.73
2019-01-24T01:29:37.391Z,78.64
2019-01-24T01:30:36.794Z,78.53
2019-01-24T01:31:37.879Z,79.17
2019-01-24T01:32:37.449Z,78.47
2019-01-24T01:33:36.838Z,78.26
2019-01-24T01:34:37.365Z,78.47
2019-01-24T01:35:37.606Z,78.78
2019-01-24T01:36:36.838Z,78.47
2019-01-24T01:37:37.453Z,79.21
2019-01-24T01:38:37.777Z,78.67
2019-01-24T01:39:36.818Z,76.79
2019-01-24T01:40:37.860Z,77.00
2019-01-24T01:41:36.752Z,77.00
2019-01-24T01:42:36.851Z,77.10
2019-01-24T01:43:37.108Z,77.66
2019-01-24T01:44:36.773Z,78.19
2019-01-24T01:45:36.653Z,77.98
2019-01-24T01:46:37.123Z,78.08
2019-01-24T01:47:38.405Z,77.66
2019-01-24T01:48:38.427Z,76.79
2019-01-24T01:49:36.699Z,77.03
2019-01-24T01:50:37.899Z,76.40
2019-01-24T01:51:37.867Z,77.98
2019-01-24T01:52:36.964Z,78.71
2019-01-24T01:53:36.787Z,78.29
2019-01-24T01:55:38.543Z,77.87
2019-01-24T01:56:38.448Z,77.14
2019-01-24T01:57:36.649Z,77.14
2019-01-24T01:58:37.480Z,78.29
2019-01-24T01:59:37.554Z,79.13
2019-01-24T02:00:38.470Z,78.29
2019-01-24T02:01:36.873Z,77.76
2019-01-24T02:02:36.699Z,78.61
2019-01-24T02:03:36.869Z,78.92
2019-01-24T02:04:42.726Z,78.82
2019-01-24T02:05:39.199Z,77.70
2019-01-24T02:06:36.592Z,78.44
2019-01-24T02:07:37.970Z,78.40
2019-01-24T02:08:37.361Z,79.45
2019-01-24T02:09:36.796Z,78.61
2019-01-24T02:10:36.386Z,77.87
2019-01-24T02:11:37.368Z,77.14
2019-01-24T02:12:37.068Z,79.03
2019-01-24T02:13:36.469Z,78.29
2019-01-24T02:14:36.462Z,78.92
2019-01-24T02:15:36.356Z,79.77
2019-01-24T02:16:36.342Z,78.78
2019-01-24T02:17:37.609Z,79.21
2019-01-24T02:18:36.866Z,80.04
2019-01-24T02:19:36.618Z,79.97
2019-01-24T02:20:37.046Z,79.87
2019-01-24T02:21:36.263Z,80.18
2019-01-24T02:22:37.561Z,80.26
2019-01-24T02:23:36.283Z,80.15
2019-01-24T02:24:37.006Z,80.04
2019-01-24T02:25:36.274Z,80.04
2019-01-24T02:26:36.252Z,79.41
2019-01-24T02:27:36.756Z,79.73
2019-01-24T02:28:36.444Z,80.15
2019-01-24T02:29:36.212Z,80.04
2019-01-24T02:30:37.027Z,78.47
2019-01-24T02:31:36.166Z,79.31
2019-01-24T02:32:36.553Z,78.36
2019-01-24T02:33:36.980Z,78.89
2019-01-24T02:34:36.150Z,78.47
2019-01-24T02:35:37.512Z,78.67
2019-01-24T02:36:36.274Z,78.99
2019-01-24T02:37:36.177Z,78.99
2019-01-24T02:38:36.402Z,79.41
2019-01-24T02:39:37.352Z,79.41
2019-01-24T02:40:36.322Z,79.21
2019-01-24T02:41:36.096Z,79.13
2019-01-24T02:42:36.785Z,79.73
2019-01-24T02:43:37.226Z,80.04
2019-01-24T02:44:36.086Z,79.62
2019-01-24T02:45:36.425Z,80.15
2019-01-24T02:46:36.873Z,78.99
2019-01-24T02:47:36.586Z,79.41
2019-01-24T02:48:36.037Z,79.94
2019-01-24T02:49:36.271Z,79.62
2019-01-24T02:50:36.036Z,79.94
2019-01-24T02:51:36.889Z,79.21
2019-01-24T02:52:36.865Z,79.21
2019-01-24T02:53:37.949Z,79.21
2019-01-24T02:54:37.295Z,78.57
2019-01-24T02:55:36.866Z,78.64
2019-01-24T02:56:35.912Z,78.99
2019-01-24T02:57:36.214Z,79.31
2019-01-24T02:58:36.001Z,80.00
2019-01-24T02:59:36.018Z,79.41
2019-01-24T03:00:35.944Z,79.21
2019-01-24T03:01:36.499Z,78.78
2019-01-24T03:02:36.867Z,79.31
2019-01-24T03:03:36.147Z,78.78
2019-01-24T03:04:36.009Z,78.05
2019-01-24T03:05:36.480Z,78.47
2019-01-24T03:06:35.965Z,79.31
2019-01-24T03:07:35.793Z,78.99
2019-01-24T03:08:35.826Z,78.89
2019-01-24T03:09:35.837Z,79.31
2019-01-24T03:11:36.920Z,78.99
2019-01-24T03:12:37.370Z,78.78
2019-01-24T03:13:35.761Z,78.78
2019-01-24T03:14:36.075Z,79.10
2019-01-24T03:15:36.067Z,79.41
2019-01-24T03:16:35.893Z,79.21
2019-01-24T03:17:35.952Z,79.52
2019-01-24T03:18:35.692Z,79.90
2019-01-24T03:19:35.682Z,79.83
2019-01-24T03:20:35.662Z,79.38
2019-01-24T03:21:35.836Z,79.31
2019-01-24T03:22:36.060Z,79.83
2019-01-24T03:23:36.429Z,78.67
2019-01-24T03:24:36.041Z,78.36
2019-01-24T03:25:35.647Z,79.10
2019-01-24T03:26:36.237Z,80.04
2019-01-24T03:28:36.811Z,80.04
2019-01-24T03:29:35.731Z,79.41
2019-01-24T03:30:35.776Z,79.06
2019-01-24T03:31:35.546Z,79.21
2019-01-24T03:32:36.586Z,79.41
2019-01-24T03:33:36.185Z,78.57
2019-01-24T03:34:35.787Z,78.47
2019-01-24T03:35:35.606Z,78.36
2019-01-24T03:36:36.396Z,79.62
2019-01-24T03:37:35.583Z,79.10
2019-01-24T03:38:35.727Z,79.62
2019-01-24T03:39:36.477Z,79.31
2019-01-24T03:40:35.769Z,79.21
2019-01-24T03:41:35.457Z,79.31
2019-01-24T03:42:37.373Z,78.78
2019-01-24T03:43:35.799Z,78.89
2019-01-24T03:44:35.491Z,79.10
2019-01-24T03:45:36.890Z,78.78
2019-01-24T03:46:40.740Z,79.52
2019-01-24T03:47:35.704Z,78.78
2019-01-24T03:48:35.380Z,79.41
2019-01-24T03:49:35.358Z,78.99
2019-01-24T03:50:35.612Z,78.36
2019-01-24T03:51:35.570Z,79.10
2019-01-24T03:52:35.368Z,78.57
2019-01-24T03:53:35.322Z,79.10
2019-01-24T03:54:35.958Z,79.21
2019-01-24T03:55:35.610Z,79.41
2019-01-24T03:56:35.394Z,79.41
2019-01-24T03:57:35.430Z,79.21
2019-01-24T03:58:35.984Z,79.31
2019-01-24T03:59:35.251Z,79.83
2019-01-24T04:00:36.007Z,78.67
2019-01-24T04:01:35.466Z,79.21
2019-01-24T04:02:35.252Z,79.31
2019-01-24T04:03:35.598Z,79.31
2019-01-24T04:04:36.155Z,78.99
2019-01-24T04:05:35.213Z,79.31
2019-01-24T04:06:35.902Z,78.99
2019-01-24T04:07:36.152Z,78.57
2019-01-24T04:08:36.216Z,79.10
2019-01-24T04:09:35.272Z,79.31
2019-01-24T04:10:35.229Z,78.57
2019-01-24T04:11:35.252Z,78.36
2019-01-24T04:12:35.560Z,78.36
2019-01-24T04:13:35.143Z,78.78
2019-01-24T04:14:35.164Z,78.78
2019-01-24T04:15:35.138Z,79.31
2019-01-24T04:16:35.880Z,78.36
2019-01-24T04:17:36.884Z,78.26
2019-01-24T04:18:35.090Z,79.31
2019-01-24T04:19:35.663Z,79.31
2019-01-24T04:20:35.501Z,79.31
2019-01-24T04:21:35.042Z,78.99
2019-01-24T04:22:36.170Z,78.82
2019-01-24T04:23:35.069Z,78.40
2019-01-24T04:24:35.024Z,78.47
2019-01-24T04:25:35.402Z,78.89
2019-01-24T04:26:35.555Z,78.40
2019-01-24T04:27:35.067Z,78.71
2019-01-24T04:28:38.714Z,79.52
2019-01-24T04:29:37.105Z,79.31
2019-01-24T04:30:35.066Z,79.45
2019-01-24T04:31:34.922Z,79.24
2019-01-24T04:32:35.892Z,78.92
2019-01-24T04:33:35.056Z,78.47
2019-01-24T04:34:34.907Z,78.78
2019-01-24T04:35:35.102Z,77.00
2019-01-24T04:36:34.908Z,78.47
2019-01-24T04:37:34.906Z,78.40
2019-01-24T04:38:35.390Z,78.61
2019-01-24T04:39:35.148Z,78.50
2019-01-24T04:40:35.701Z,78.71
2019-01-24T04:41:34.899Z,78.47
2019-01-24T04:42:34.934Z,79.13
2019-01-24T04:43:35.884Z,79.41
2019-01-24T04:44:35.006Z,79.35
2019-01-24T04:45:34.778Z,79.03
2019-01-24T04:46:35.198Z,79.31
2019-01-24T04:47:35.531Z,78.99
2019-01-24T04:48:35.016Z,78.71
2019-01-24T04:49:34.869Z,79.35
2019-01-24T04:50:35.216Z,78.15
2019-01-24T04:51:35.289Z,78.57
2019-01-24T04:52:34.861Z,79.35
2019-01-24T04:53:34.700Z,79.35
2019-01-24T04:54:34.703Z,78.67
2019-01-24T04:55:34.962Z,77.66
2019-01-24T04:56:34.740Z,79.13
2019-01-24T04:57:34.741Z,78.71
2019-01-24T04:58:34.632Z,79.03
2019-01-24T04:59:35.437Z,79.55
2019-01-24T05:00:34.915Z,79.13
2019-01-24T05:01:35.441Z,78.89
2019-01-24T05:02:34.799Z,78.89
2019-01-24T05:03:34.648Z,79.35
2019-01-24T05:04:35.885Z,79.83
2019-01-24T05:05:34.699Z,79.13
2019-01-24T05:06:34.551Z,78.89
2019-01-24T05:07:41.964Z,79.21
2019-01-24T05:08:35.511Z,78.29
2019-01-24T05:09:34.611Z,78.05
2019-01-24T05:10:34.512Z,78.71
2019-01-24T05:11:34.499Z,78.71
2019-01-24T05:12:34.487Z,78.40
2019-01-24T05:13:34.483Z,78.82
2019-01-24T05:14:34.472Z,80.08
2019-01-24T05:15:34.497Z,79.87
2019-01-24T05:16:34.533Z,79.97
2019-01-24T05:17:34.465Z,79.97
2019-01-24T05:18:34.456Z,79.66
2019-01-24T05:19:34.416Z,79.24
2019-01-24T05:20:34.885Z,79.52
2019-01-24T05:21:34.396Z,79.31
2019-01-24T05:22:34.386Z,79.24
2019-01-24T05:23:34.376Z,78.99
2019-01-24T05:24:34.363Z,79.13
2019-01-24T05:25:34.382Z,79.24
2019-01-24T05:26:34.469Z,78.82
2019-01-24T05:27:34.350Z,78.50
2019-01-24T05:28:34.403Z,78.82
2019-01-24T05:29:34.963Z,79.31
2019-01-24T05:30:34.480Z,78.29
2019-01-24T05:31:34.317Z,78.29
2019-01-24T05:32:34.283Z,78.67
2019-01-24T05:33:34.348Z,78.47
2019-01-24T05:34:34.263Z,79.10
2019-01-24T05:35:35.083Z,78.78
2019-01-24T05:36:34.257Z,79.45
2019-01-24T05:37:34.274Z,79.45
2019-01-24T05:38:34.544Z,79.55
2019-01-24T05:39:34.206Z,78.71
2019-01-24T05:40:34.198Z,79.31
2019-01-24T05:41:34.213Z,78.78
2019-01-24T05:42:34.240Z,78.89
2019-01-24T05:43:34.173Z,79.13
2019-01-24T05:44:34.155Z,79.35
2019-01-24T05:45:34.154Z,79.45
2019-01-24T05:46:34.137Z,79.52
2019-01-24T05:47:34.160Z,79.97
2019-01-24T05:48:34.113Z,79.10
2019-01-24T05:49:34.152Z,79.83
2019-01-24T05:50:34.097Z,79.55
2019-01-24T05:51:34.092Z,79.62
2019-01-24T05:52:34.102Z,79.13
2019-01-24T05:53:34.109Z,78.99
2019-01-24T05:54:34.116Z,79.10
2019-01-24T05:55:35.225Z,79.45
2019-01-24T05:56:34.195Z,77.10
2019-01-24T05:57:36.906Z,77.87
2019-01-24T05:58:34.145Z,78.61
2019-01-24T05:59:34.039Z,78.82
2019-01-24T06:00:34.164Z,78.78
2019-01-24T06:01:35.476Z,79.24
2019-01-24T06:02:34.511Z,79.66
2019-01-24T06:03:34.193Z,80.29
2019-01-24T06:04:38.446Z,80.08
2019-01-24T06:05:41.721Z,80.08
2019-01-24T06:06:35.921Z,79.35
2019-01-24T06:07:34.140Z,79.97
2019-01-24T06:08:34.050Z,79.66
2019-01-24T06:09:34.217Z,79.83
2019-01-24T06:10:34.545Z,79.45
2019-01-24T06:11:34.463Z,79.13
2019-01-24T06:12:34.596Z,79.52
2019-01-24T06:13:48.503Z,79.66
2019-01-24T06:14:34.442Z,79.41
2019-01-24T06:15:34.046Z,79.45
2019-01-24T06:16:34.559Z,79.73
2019-01-24T06:17:33.897Z,79.73
2019-01-24T06:18:34.678Z,79.41
2019-01-24T06:19:33.880Z,79.31
2019-01-24T06:20:34.053Z,79.21
2019-01-24T06:21:33.832Z,78.61
2019-01-24T06:22:33.866Z,78.50
2019-01-24T06:23:33.791Z,79.41
2019-01-24T06:24:33.788Z,79.21
2019-01-24T06:25:33.735Z,79.45
2019-01-24T06:26:33.749Z,79.31
2019-01-24T06:27:33.717Z,79.55
2019-01-24T06:28:33.708Z,79.52
2019-01-24T06:29:33.747Z,79.35
2019-01-24T06:30:33.688Z,79.41
2019-01-24T06:31:33.674Z,79.35
2019-01-24T06:32:33.669Z,79.41
2019-01-24T06:33:33.656Z,78.99
2019-01-24T06:34:33.702Z,79.13
2019-01-24T06:35:33.634Z,79.41
2019-01-24T06:36:33.618Z,79.45
2019-01-24T06:37:33.610Z,79.73
2019-01-24T06:38:33.601Z,79.55
2019-01-24T06:39:33.600Z,79.41
2019-01-24T06:40:33.607Z,79.41
2019-01-24T06:41:33.614Z,80.18
2019-01-24T06:42:33.563Z,79.03
2019-01-24T06:43:33.553Z,78.78
2019-01-24T06:44:33.535Z,78.82
2019-01-24T06:45:33.554Z,78.92
2019-01-24T06:46:33.514Z,78.92
2019-01-24T06:47:33.540Z,79.10
2019-01-24T06:48:33.501Z,79.87
2019-01-24T06:49:33.489Z,79.87
2019-01-24T06:50:33.499Z,80.26
2019-01-24T06:51:33.464Z,79.73
2019-01-24T06:52:33.491Z,79.66
2019-01-24T06:53:33.510Z,79.97
2019-01-24T06:54:33.435Z,79.83
2019-01-24T06:55:33.456Z,79.77
2019-01-24T06:56:33.411Z,79.10
2019-01-24T06:57:33.400Z,78.99
2019-01-24T06:58:33.405Z,79.55
2019-01-24T06:59:33.387Z,79.87
2019-01-24T07:00:33.411Z,79.97
2019-01-24T07:01:33.367Z,79.21
2019-01-24T07:02:33.355Z,79.45
2019-01-24T07:03:33.339Z,79.45
2019-01-24T07:04:33.334Z,79.41
2019-01-24T07:05:33.350Z,79.21
2019-01-24T07:06:33.307Z,78.71
2019-01-24T07:07:33.308Z,79.13
2019-01-24T07:08:33.304Z,78.71
2019-01-24T07:09:33.278Z,79.45
2019-01-24T07:10:33.302Z,79.24
2019-01-24T07:11:33.261Z,79.13
2019-01-24T07:12:33.259Z,79.45
2019-01-24T07:13:33.245Z,79.03
2019-01-24T07:14:33.223Z,79.35
2019-01-24T07:15:33.213Z,79.45
2019-01-24T07:16:33.277Z,79.13
2019-01-24T07:17:33.192Z,79.35
2019-01-24T07:18:33.243Z,79.21
2019-01-24T07:19:33.174Z,79.35
2019-01-24T07:20:33.210Z,79.24
2019-01-24T07:21:33.173Z,79.77
2019-01-24T07:22:33.147Z,79.66
2019-01-24T07:23:33.129Z,79.13
2019-01-24T07:24:33.125Z,79.35
2019-01-24T07:25:33.111Z,80.18
2019-01-24T07:26:33.142Z,79.87
2019-01-24T07:27:33.120Z,79.55
2019-01-24T07:28:33.093Z,79.77
2019-01-24T07:29:33.083Z,79.45
2019-01-24T07:30:33.066Z,80.18
2019-01-24T07:31:33.055Z,80.08
2019-01-24T07:32:33.063Z,79.87
2019-01-24T07:33:33.032Z,80.08
2019-01-24T07:34:33.022Z,80.18
2019-01-24T07:35:33.011Z,79.87
2019-01-24T07:36:32.997Z,80.50
2019-01-24T07:37:33.018Z,78.82
2019-01-24T07:38:32.983Z,79.35
2019-01-24T07:39:32.993Z,80.08
2019-01-24T07:40:32.953Z,79.45
2019-01-24T07:41:32.985Z,79.35
2019-01-24T07:42:32.981Z,79.77
2019-01-24T07:43:32.928Z,80.50
2019-01-24T07:44:32.964Z,79.97
2019-01-24T07:45:32.913Z,79.97
2019-01-24T07:46:32.907Z,79.97
2019-01-24T07:47:32.887Z,79.77
2019-01-24T07:48:32.900Z,79.77
2019-01-24T07:49:32.885Z,79.77
2019-01-24T07:50:32.859Z,78.50
2019-01-24T07:51:32.843Z,78.50
2019-01-24T07:52:32.838Z,79.35
2019-01-24T07:53:32.847Z,79.35
2019-01-24T07:54:32.825Z,78.92
2019-01-24T07:55:32.807Z,78.71
2019-01-24T07:56:32.801Z,79.24
2019-01-24T07:57:32.792Z,78.96
2019-01-24T07:58:32.790Z,79.45
2019-01-24T07:59:32.759Z,78.71
2019-01-24T08:00:32.749Z,78.75
2019-01-24T08:01:32.740Z,79.24
2019-01-24T08:02:32.728Z,79.77
2019-01-24T08:03:32.737Z,79.87
2019-01-24T08:04:32.770Z,79.80
2019-01-24T08:05:32.710Z,79.06
2019-01-24T08:06:32.692Z,80.22
2019-01-24T08:07:32.683Z,80.43
2019-01-24T08:08:32.702Z,80.18
2019-01-24T08:09:32.657Z,80.01
2019-01-24T08:10:32.650Z,80.50
2019-01-24T08:11:32.639Z,80.11
2019-01-24T08:12:32.628Z,80.43
2019-01-24T08:13:32.637Z,80.71
2019-01-24T08:14:32.604Z,79.87
2019-01-24T08:15:32.603Z,80.08
2019-01-24T08:16:32.587Z,80.08
2019-01-24T08:17:32.593Z,80.08
2019-01-24T08:18:40.257Z,80.08
2019-01-24T08:19:32.605Z,79.03
2019-01-24T08:20:32.633Z,79.13
2019-01-24T08:21:32.544Z,79.49
2019-01-24T08:22:32.571Z,78.96
2019-01-24T08:23:32.533Z,80.33
2019-01-24T08:24:32.558Z,80.11
2019-01-24T08:25:32.520Z,79.80
2019-01-24T08:26:32.494Z,80.11
2019-01-24T08:27:32.477Z,79.80
2019-01-24T08:28:32.499Z,80.11
2019-01-24T08:29:32.503Z,79.91
2019-01-24T08:30:32.449Z,79.80
2019-01-24T08:31:32.443Z,80.11
2019-01-24T08:32:32.444Z,80.22
2019-01-24T08:33:32.477Z,80.01
2019-01-24T08:34:32.406Z,80.11
2019-01-24T08:35:32.406Z,79.06
2019-01-24T08:36:32.386Z,79.27
2019-01-24T08:37:32.429Z,80.11
2019-01-24T08:38:32.407Z,79.17
2019-01-24T08:39:32.372Z,79.87
2019-01-24T08:40:32.343Z,78.75
2019-01-24T08:41:32.351Z,79.49
2019-01-24T08:42:32.320Z,79.27
2019-01-24T08:43:32.320Z,78.85
2019-01-24T08:44:32.317Z,78.96
2019-01-24T08:45:32.283Z,78.44
2019-01-24T08:46:32.277Z,79.59
2019-01-24T08:47:32.266Z,78.75
2019-01-24T08:48:39.943Z,79.27
2019-01-24T08:49:32.349Z,78.85
2019-01-24T08:50:32.343Z,79.38
2019-01-24T08:51:32.274Z,79.41
2019-01-24T08:52:32.219Z,80.75
2019-01-24T08:53:40.845Z,79.69
2019-01-24T08:54:32.219Z,79.49
2019-01-24T08:55:32.289Z,80.43
2019-01-24T08:56:32.188Z,79.91
2019-01-24T08:57:32.200Z,80.11
2019-01-24T08:58:32.153Z,80.33
2019-01-24T08:59:39.818Z,80.75
2019-01-24T09:00:32.209Z,80.43
2019-01-24T09:01:32.215Z,80.64
2019-01-24T09:02:32.132Z,79.80
2019-01-24T09:03:32.103Z,79.91
2019-01-24T09:04:32.114Z,79.80
2019-01-24T09:05:32.098Z,78.85
2019-01-24T09:06:32.081Z,78.85
2019-01-24T09:07:39.694Z,79.38
2019-01-24T09:08:32.109Z,79.49
2019-01-24T09:10:41.937Z,80.11
2019-01-24T09:11:49.434Z,80.54
2019-01-24T09:12:41.810Z,80.43
2019-01-24T09:13:41.843Z,79.49
2019-01-24T09:14:41.771Z,80.01
2019-01-24T09:15:41.778Z,79.80
2019-01-24T09:16:41.734Z,79.80
2019-01-24T09:17:41.713Z,80.33
2019-01-24T09:18:41.742Z,80.22
2019-01-24T09:19:49.337Z,79.91
2019-01-24T09:20:41.726Z,79.49
2019-01-24T09:21:41.758Z,80.11
2019-01-24T09:22:41.680Z,80.43
2019-01-24T09:23:41.652Z,80.11
2019-01-24T09:24:49.285Z,79.91
2019-01-24T09:25:41.673Z,79.27
2019-01-24T09:26:50.329Z,79.77
2019-01-24T09:27:41.653Z,79.35
2019-01-24T09:28:41.715Z,79.24
2019-01-24T09:29:41.619Z,79.03
2019-01-24T09:30:41.576Z,78.92
2019-01-24T09:31:50.267Z,78.75
2019-01-24T09:32:41.576Z,78.85
2019-01-24T09:33:41.644Z,79.17
2019-01-24T09:35:51.452Z,79.35
2019-01-24T09:36:51.361Z,79.97
2019-01-24T09:37:51.387Z,79.55
2019-01-24T09:38:51.342Z,79.24
2019-01-24T09:39:51.305Z,79.24
2019-01-24T09:40:51.324Z,79.13
2019-01-24T09:41:51.267Z,78.71
2019-01-24T09:42:51.264Z,79.24
2019-01-24T09:43:58.833Z,79.24
2019-01-24T09:44:51.510Z,78.78
2019-01-24T09:45:51.304Z,78.92
2019-01-24T09:46:52.062Z,78.82
2019-01-24T09:47:51.205Z,78.50
2019-01-24T09:48:51.243Z,78.29
2019-01-24T09:49:51.183Z,78.40
2019-01-24T09:50:51.193Z,78.29
2019-01-24T09:51:51.311Z,78.50
2019-01-24T09:52:51.151Z,79.13
2019-01-24T09:53:51.138Z,78.40
2019-01-24T09:54:51.136Z,78.05
2019-01-24T09:55:51.126Z,78.15
2019-01-24T09:56:51.183Z,78.67
2019-01-24T09:57:51.095Z,78.05
2019-01-24T09:58:51.092Z,78.19
2019-01-24T09:59:51.093Z,78.36
2019-01-24T10:00:51.111Z,78.08
2019-01-24T10:01:51.062Z,78.57
2019-01-24T10:02:51.158Z,77.66
2019-01-24T10:03:51.036Z,77.84
2019-01-24T10:04:51.025Z,78.36
2019-01-24T10:05:51.018Z,77.62
2019-01-24T10:06:51.024Z,78.05
2019-01-24T10:07:51.018Z,78.26
2019-01-24T10:08:50.985Z,77.31
2019-01-24T10:09:50.985Z,76.93
2019-01-24T10:10:50.968Z,77.35
2019-01-24T10:11:50.964Z,76.37
2019-01-24T10:12:50.971Z,77.52
2019-01-24T10:13:50.935Z,77.31
2019-01-24T10:14:50.920Z,77.87
2019-01-24T10:15:50.917Z,77.00
2019-01-24T10:16:50.965Z,77.00
2019-01-24T10:17:50.918Z,76.26
2019-01-24T10:18:50.887Z,77.03
2019-01-24T10:19:50.877Z,77.10
2019-01-24T10:20:50.860Z,77.62
2019-01-24T10:21:50.871Z,77.73
2019-01-24T10:22:50.859Z,78.15
2019-01-24T10:23:50.834Z,77.42
2019-01-24T10:24:50.841Z,77.42
2019-01-24T10:25:50.819Z,76.89
2019-01-24T10:26:50.808Z,75.84
2019-01-24T10:27:50.810Z,76.05
2019-01-24T10:28:50.789Z,77.31
2019-01-24T10:29:50.766Z,77.31
2019-01-24T10:30:50.765Z,76.89
2019-01-24T10:31:50.751Z,78.15
2019-01-24T10:32:50.781Z,78.05
2019-01-24T10:33:50.750Z,77.21
2019-01-24T10:34:50.723Z,76.57
2019-01-24T10:35:50.710Z,76.89
2019-01-24T10:36:50.712Z,77.52
2019-01-24T10:37:50.695Z,77.73
2019-01-24T10:38:50.698Z,77.94
2019-01-24T10:39:50.675Z,78.57
2019-01-24T10:40:50.655Z,78.15
2019-01-24T10:41:50.669Z,78.57
2019-01-24T10:42:50.640Z,78.47
2019-01-24T10:43:50.647Z,78.05
2019-01-24T10:44:50.614Z,79.21
2019-01-24T10:45:50.608Z,78.67
2019-01-24T10:46:50.605Z,78.89
2019-01-24T10:47:50.595Z,78.85
2019-01-24T10:48:50.590Z,79.10
2019-01-24T10:49:50.572Z,78.64
2019-01-24T10:50:50.587Z,77.73
2019-01-24T10:51:50.537Z,77.80
2019-01-24T10:52:50.529Z,78.01
2019-01-24T10:53:50.560Z,78.36
2019-01-24T10:54:50.510Z,77.07
2019-01-24T10:55:50.498Z,77.70
2019-01-24T10:56:50.492Z,78.33
2019-01-24T10:57:50.482Z,78.12
2019-01-24T10:58:50.507Z,77.17
2019-01-24T10:59:50.455Z,78.22
2019-01-24T11:00:50.448Z,76.86
2019-01-24T11:01:50.468Z,76.96
2019-01-24T11:02:50.427Z,77.42
2019-01-24T11:03:50.448Z,77.07
2019-01-24T11:04:50.412Z,77.84
2019-01-24T11:05:50.396Z,79.21
2019-01-24T11:06:50.394Z,78.64
2019-01-24T11:07:50.372Z,78.75
2019-01-24T11:08:50.405Z,78.33
2019-01-24T11:09:50.352Z,78.64
2019-01-24T11:10:50.347Z,78.53
2019-01-24T11:11:50.331Z,79.06
2019-01-24T11:12:50.331Z,78.85
2019-01-24T11:13:50.321Z,79.48
2019-01-24T11:14:50.328Z,79.41
2019-01-24T11:15:50.312Z,78.75
2019-01-24T11:16:50.281Z,79.27
2019-01-24T11:17:50.270Z,79.27
2019-01-24T11:18:50.282Z,79.58
2019-01-24T11:19:50.278Z,79.38
2019-01-24T11:20:50.273Z,79.48
2019-01-24T11:21:50.269Z,79.58
2019-01-24T11:22:50.218Z,80.53
2019-01-24T11:23:50.216Z,80.53
2019-01-24T11:24:50.225Z,80.43
2019-01-24T11:25:50.245Z,80.00
2019-01-24T11:26:50.191Z,80.43
2019-01-24T11:27:50.168Z,80.00
2019-01-24T11:28:50.153Z,79.90
2019-01-24T11:29:50.176Z,80.53
2019-01-24T11:30:50.155Z,80.43
2019-01-24T11:31:50.132Z,80.11
2019-01-24T11:32:50.134Z,80.64
2019-01-24T11:33:50.099Z,80.53
2019-01-24T11:34:50.092Z,81.05
2019-01-24T11:35:50.125Z,81.30
2019-01-24T11:36:56.803Z,81.16
2019-01-24T11:37:51.066Z,81.41
2019-01-24T11:38:50.058Z,81.37
2019-01-24T11:39:50.051Z,81.62
2019-01-24T11:40:50.070Z,82.00
2019-01-24T11:41:50.020Z,81.79
2019-01-24T11:42:50.036Z,81.69
2019-01-24T11:43:50.014Z,81.41
2019-01-24T11:44:49.995Z,81.73
2019-01-24T11:45:50.013Z,82.25
2019-01-24T11:46:49.977Z,82.14
2019-01-24T11:47:49.957Z,81.62
2019-01-24T11:48:49.962Z,82.14
2019-01-24T11:49:49.945Z,82.25
2019-01-24T11:50:51.140Z,82.35
2019-01-24T11:51:49.944Z,81.93
2019-01-24T11:52:49.910Z,81.62
2019-01-24T11:53:53.178Z,82.21
2019-01-24T11:54:49.947Z,81.73
2019-01-24T11:55:49.880Z,81.27
2019-01-24T11:56:49.906Z,81.05
2019-01-24T11:57:49.860Z,81.27
2019-01-24T11:58:49.850Z,81.27
2019-01-24T11:59:49.849Z,81.09
2019-01-24T12:00:49.838Z,81.05
2019-01-24T12:01:49.865Z,80.85
2019-01-24T12:02:49.806Z,80.74
2019-01-24T12:03:49.821Z,80.85
2019-01-24T12:04:49.788Z,80.64
2019-01-24T12:05:49.775Z,81.48
2019-01-24T12:06:49.843Z,81.48
2019-01-24T12:07:49.753Z,81.79
2019-01-24T12:08:49.750Z,81.37
2019-01-24T12:09:49.735Z,80.91
2019-01-24T12:10:49.720Z,81.48
2019-01-24T12:11:49.736Z,81.16
2019-01-24T12:12:49.701Z,81.27
2019-01-24T12:13:49.721Z,80.49
2019-01-24T12:14:49.681Z,81.02
2019-01-24T12:15:49.666Z,80.29
2019-01-24T12:16:49.699Z,80.71
2019-01-24T12:17:49.656Z,80.29
2019-01-24T12:18:49.631Z,80.39
2019-01-24T12:19:49.654Z,79.76
2019-01-24T12:20:49.624Z,79.34
2019-01-24T12:21:49.656Z,80.29
2019-01-24T12:22:49.596Z,80.00
2019-01-24T12:23:49.610Z,80.00
2019-01-24T12:24:49.575Z,80.29
2019-01-24T12:25:49.565Z,79.17
2019-01-24T12:26:49.557Z,79.97
2019-01-24T12:27:49.573Z,80.22
2019-01-24T12:28:49.537Z,79.17
2019-01-24T12:29:49.523Z,78.53
2019-01-24T12:30:49.516Z,78.85
2019-01-24T12:31:49.510Z,79.06
2019-01-24T12:32:49.520Z,79.13
2019-01-24T12:33:49.483Z,78.39
2019-01-24T12:34:49.513Z,78.50
2019-01-24T12:35:49.473Z,78.50
2019-01-24T12:36:49.452Z,78.08
2019-01-24T12:37:49.495Z,77.03
2019-01-24T12:38:49.432Z,76.61
2019-01-24T12:39:49.455Z,76.93
2019-01-24T12:40:49.420Z,77.07
2019-01-24T12:41:49.404Z,77.17
2019-01-24T12:42:49.397Z,78.43
2019-01-24T12:43:49.417Z,78.96
2019-01-24T12:44:49.377Z,78.50
2019-01-24T12:45:49.372Z,78.85
2019-01-24T12:46:49.350Z,78.81
2019-01-24T12:47:49.347Z,78.92
2019-01-24T12:48:49.353Z,78.39
2019-01-24T12:49:49.321Z,78.19
2019-01-24T12:50:49.314Z,78.39
2019-01-24T12:51:49.299Z,78.08
2019-01-24T12:52:49.284Z,78.08
2019-01-24T12:53:49.292Z,77.87
2019-01-24T12:54:49.278Z,77.98
2019-01-24T12:55:49.254Z,77.66
2019-01-24T12:56:50.138Z,77.03
2019-01-24T12:57:49.241Z,77.03
2019-01-24T12:58:49.244Z,76.93
2019-01-24T12:59:49.210Z,75.88
2019-01-24T13:00:49.218Z,77.45
2019-01-24T13:01:49.197Z,77.03